createdAt,value
2022-11-28T00:00:09.237Z,10.01
2022-11-28T00:01:09.233Z,10.01
2022-11-28T00:02:09.359Z,10.01
2022-11-28T00:03:09.418Z,10.01
2022-11-28T00:04:09.309Z,10.00
2022-11-28T00:05:09.175Z,10.00
2022-11-28T00:06:09.158Z,10.01
2022-11-28T00:07:09.149Z,10.00
2022-11-28T00:08:09.135Z,10.01
2022-11-28T00:09:09.121Z,10.00
2022-11-28T00:10:09.107Z,10.00
2022-11-28T00:11:09.096Z,9.99
2022-11-28T00:12:09.080Z,9.99
2022-11-28T00:13:09.074Z,9.97
2022-11-28T00:14:09.056Z,9.99
2022-11-28T00:15:09.044Z,9.97
2022-11-28T00:16:09.132Z,9.99
2022-11-28T00:17:09.017Z,9.99
2022-11-28T00:18:09.004Z,9.99
2022-11-28T00:19:08.992Z,9.99
2022-11-28T00:20:09.095Z,10.00
2022-11-28T00:21:08.965Z,9.99
2022-11-28T00:22:08.958Z,9.99
2022-11-28T00:23:08.940Z,9.99
2022-11-28T00:24:08.928Z,9.99
2022-11-28T00:25:08.914Z,10.00
2022-11-28T00:26:08.900Z,9.99
2022-11-28T00:27:08.888Z,9.99
2022-11-28T00:28:08.873Z,9.97
2022-11-28T00:29:08.863Z,9.97
2022-11-28T00:30:08.847Z,9.99
2022-11-28T00:31:08.837Z,9.99
2022-11-28T00:32:08.927Z,9.99
2022-11-28T00:33:08.808Z,9.99
2022-11-28T00:34:08.795Z,9.99
2022-11-28T00:35:08.783Z,9.99
2022-11-28T00:36:08.886Z,9.99
2022-11-28T00:37:08.757Z,10.00
2022-11-28T00:38:08.748Z,9.97
2022-11-28T00:39:08.731Z,9.99
2022-11-28T00:40:08.716Z,9.99
2022-11-28T00:41:08.706Z,10.01
2022-11-28T00:42:08.692Z,9.99
2022-11-28T00:43:08.681Z,9.99
2022-11-28T00:44:08.667Z,10.00
2022-11-28T00:45:08.654Z,9.99
2022-11-28T00:46:08.698Z,10.00
2022-11-28T00:47:08.629Z,9.99
2022-11-28T00:48:08.614Z,10.00
2022-11-28T00:49:08.602Z,9.99
2022-11-28T00:50:08.589Z,10.00
2022-11-28T00:51:08.577Z,9.99
2022-11-28T00:52:08.681Z,9.99
2022-11-28T00:53:08.550Z,9.99
2022-11-28T00:54:08.534Z,9.99
2022-11-28T00:55:08.535Z,9.99
2022-11-28T00:56:08.510Z,9.99
2022-11-28T00:57:08.499Z,9.97
2022-11-28T00:58:08.484Z,9.99
2022-11-28T00:59:08.471Z,9.99
2022-11-28T01:00:08.457Z,9.99
2022-11-28T01:01:08.519Z,9.99
2022-11-28T01:02:08.536Z,9.99
2022-11-28T01:03:08.420Z,9.99
2022-11-28T01:04:08.409Z,9.97
2022-11-28T01:05:08.394Z,9.97
2022-11-28T01:06:08.381Z,10.00
2022-11-28T01:07:08.369Z,10.00
2022-11-28T01:08:08.472Z,9.97
2022-11-28T01:09:08.351Z,9.99
2022-11-28T01:10:08.329Z,9.99
2022-11-28T01:11:08.318Z,10.00
2022-11-28T01:12:08.307Z,10.00
2022-11-28T01:13:08.292Z,9.99
2022-11-28T01:14:08.277Z,10.00
2022-11-28T01:15:08.264Z,10.00
2022-11-28T01:16:08.351Z,10.00
2022-11-28T01:17:08.242Z,10.00
2022-11-28T01:18:08.224Z,10.00
2022-11-28T01:19:08.214Z,10.00
2022-11-28T01:20:08.198Z,9.99
2022-11-28T01:21:08.187Z,10.00
2022-11-28T01:22:08.173Z,10.00
2022-11-28T01:23:08.161Z,10.00
2022-11-28T01:24:08.266Z,10.01
2022-11-28T01:25:08.137Z,9.99
2022-11-28T01:26:08.125Z,9.99
2022-11-28T01:27:08.109Z,10.00
2022-11-28T01:28:08.096Z,9.99
2022-11-28T01:29:08.084Z,9.99
2022-11-28T01:30:08.071Z,9.99
2022-11-28T01:31:08.149Z,9.99
2022-11-28T01:32:08.046Z,9.99
2022-11-28T01:33:08.031Z,9.99
2022-11-28T01:34:08.018Z,9.99
2022-11-28T01:35:08.006Z,9.99
2022-11-28T01:36:07.994Z,9.99
2022-11-28T01:37:07.980Z,9.99
2022-11-28T01:38:07.975Z,9.99
2022-11-28T01:39:07.953Z,10.00
2022-11-28T01:40:08.059Z,9.99
2022-11-28T01:41:07.928Z,9.99
2022-11-28T01:42:07.922Z,9.99
2022-11-28T01:43:07.902Z,10.00
2022-11-28T01:44:07.888Z,9.99
2022-11-28T01:45:07.877Z,10.00
2022-11-28T01:46:07.863Z,9.99
2022-11-28T01:47:07.921Z,10.00
2022-11-28T01:48:07.836Z,9.99
2022-11-28T01:49:07.824Z,10.00
2022-11-28T01:50:07.811Z,10.00
2022-11-28T01:51:07.799Z,9.99
2022-11-28T01:52:07.785Z,10.00
2022-11-28T01:53:07.775Z,10.00
2022-11-28T01:54:07.759Z,10.00
2022-11-28T01:55:07.748Z,9.99
2022-11-28T01:56:07.853Z,10.00
2022-11-28T01:57:07.721Z,10.00
2022-11-28T01:58:07.707Z,9.99
2022-11-28T01:59:07.696Z,9.99
2022-11-28T02:00:07.680Z,9.99
2022-11-28T02:01:07.744Z,9.99
2022-11-28T02:02:07.841Z,9.99
2022-11-28T02:03:07.641Z,9.99
2022-11-28T02:04:07.630Z,9.97
2022-11-28T02:05:07.615Z,9.97
2022-11-28T02:06:07.603Z,9.97
2022-11-28T02:07:07.596Z,9.97
2022-11-28T02:08:07.575Z,9.97
2022-11-28T02:09:07.564Z,9.96
2022-11-28T02:10:07.548Z,9.97
2022-11-28T02:11:07.539Z,9.94
2022-11-28T02:12:07.644Z,9.96
2022-11-28T02:13:07.513Z,9.96
2022-11-28T02:14:07.498Z,9.97
2022-11-28T02:15:07.487Z,9.96
2022-11-28T02:16:07.528Z,9.96
2022-11-28T02:17:07.461Z,9.94
2022-11-28T02:18:07.454Z,9.96
2022-11-28T02:19:07.439Z,9.97
2022-11-28T02:20:07.421Z,9.96
2022-11-28T02:21:07.412Z,9.96
2022-11-28T02:22:07.395Z,9.94
2022-11-28T02:23:07.388Z,9.96
2022-11-28T02:24:07.369Z,9.96
2022-11-28T02:25:07.359Z,9.96
2022-11-28T02:26:07.345Z,9.94
2022-11-28T02:27:07.332Z,9.94
2022-11-28T02:28:07.434Z,9.94
2022-11-28T02:29:07.307Z,9.94
2022-11-28T02:30:07.293Z,9.96
2022-11-28T02:31:07.366Z,9.94
2022-11-28T02:32:07.266Z,9.93
2022-11-28T02:33:07.256Z,9.94
2022-11-28T02:34:07.242Z,9.93
2022-11-28T02:35:07.230Z,9.96
2022-11-28T02:36:07.216Z,9.93
2022-11-28T02:37:07.205Z,9.96
2022-11-28T02:38:07.192Z,9.94
2022-11-28T02:39:07.179Z,9.96
2022-11-28T02:40:07.170Z,9.96
2022-11-28T02:41:07.155Z,9.93
2022-11-28T02:42:07.139Z,9.96
2022-11-28T02:43:07.126Z,9.94
2022-11-28T02:44:07.233Z,9.94
2022-11-28T02:45:07.100Z,9.96
2022-11-28T02:46:07.088Z,9.94
2022-11-28T02:47:07.135Z,9.93
2022-11-28T02:48:07.063Z,9.96
2022-11-28T02:49:07.052Z,9.94
2022-11-28T02:50:07.036Z,9.94
2022-11-28T02:51:07.028Z,9.93
2022-11-28T02:52:07.009Z,9.94
2022-11-28T02:53:06.997Z,9.93
2022-11-28T02:54:06.982Z,9.94
2022-11-28T02:55:06.971Z,9.94
2022-11-28T02:56:06.960Z,9.94
2022-11-28T02:57:06.947Z,9.94
2022-11-28T02:58:06.932Z,9.94
2022-11-28T02:59:06.922Z,9.96
2022-11-28T03:00:07.036Z,9.94
2022-11-28T03:01:06.983Z,9.94
2022-11-28T03:02:06.931Z,9.94
2022-11-28T03:03:06.868Z,9.94
2022-11-28T03:04:06.853Z,9.93
2022-11-28T03:05:06.843Z,9.93
2022-11-28T03:06:06.838Z,9.91
2022-11-28T03:07:06.815Z,9.94
2022-11-28T03:08:06.802Z,9.91
2022-11-28T03:09:06.788Z,9.93
2022-11-28T03:10:06.780Z,9.93
2022-11-28T03:11:06.762Z,9.93
2022-11-28T03:12:06.751Z,9.94
2022-11-28T03:13:06.736Z,9.93
2022-11-28T03:14:06.726Z,9.93
2022-11-28T03:15:06.711Z,9.91
2022-11-28T03:16:06.872Z,9.93
2022-11-28T03:17:06.687Z,9.93
2022-11-28T03:18:06.676Z,9.93
2022-11-28T03:19:06.659Z,9.94
2022-11-28T03:20:06.645Z,9.94
2022-11-28T03:21:06.633Z,9.93
2022-11-28T03:22:06.621Z,9.93
2022-11-28T03:23:06.606Z,9.94
2022-11-28T03:24:06.595Z,9.93
2022-11-28T03:25:06.581Z,9.91
2022-11-28T03:26:06.570Z,9.93
2022-11-28T03:27:06.555Z,9.93
2022-11-28T03:28:06.543Z,9.94
2022-11-28T03:29:06.530Z,9.91
2022-11-28T03:30:06.522Z,9.93
2022-11-28T03:31:06.553Z,9.93
2022-11-28T03:32:06.611Z,9.93
2022-11-28T03:33:06.477Z,9.93
2022-11-28T03:34:06.468Z,9.94
2022-11-28T03:35:06.451Z,9.91
2022-11-28T03:36:06.441Z,9.91
2022-11-28T03:37:06.424Z,9.93
2022-11-28T03:38:06.414Z,9.93
2022-11-28T03:39:06.399Z,9.91
2022-11-28T03:40:06.386Z,9.91
2022-11-28T03:41:06.372Z,9.91
2022-11-28T03:42:06.367Z,9.89
2022-11-28T03:43:06.347Z,9.89
2022-11-28T03:44:06.335Z,9.91
2022-11-28T03:45:06.319Z,9.88
2022-11-28T03:46:06.310Z,9.88
2022-11-28T03:47:06.382Z,9.88
2022-11-28T03:48:06.400Z,9.88
2022-11-28T03:49:06.267Z,9.89
2022-11-28T03:50:06.255Z,9.88
2022-11-28T03:51:06.242Z,9.89
2022-11-28T03:52:06.229Z,9.89
2022-11-28T03:53:06.214Z,9.88
2022-11-28T03:54:06.204Z,9.89
2022-11-28T03:55:06.188Z,9.88
2022-11-28T03:56:06.225Z,9.89
2022-11-28T03:57:06.162Z,9.91
2022-11-28T03:58:06.161Z,9.89
2022-11-28T03:59:06.134Z,9.86
2022-11-28T04:00:06.123Z,9.89
2022-11-28T04:01:06.161Z,9.89
2022-11-28T04:02:06.097Z,9.89
2022-11-28T04:03:06.173Z,9.89
2022-11-28T04:04:06.188Z,9.89
2022-11-28T04:05:06.055Z,9.86
2022-11-28T04:06:06.046Z,9.91
2022-11-28T04:07:06.030Z,9.89
2022-11-28T04:08:06.019Z,9.89
2022-11-28T04:09:10.062Z,9.89
2022-11-28T04:10:07.032Z,9.88
2022-11-28T04:11:05.978Z,9.89
2022-11-28T04:12:05.966Z,9.89
2022-11-28T04:13:05.950Z,9.89
2022-11-28T04:14:05.940Z,9.88
2022-11-28T04:15:05.928Z,9.89
2022-11-28T04:16:05.988Z,9.89
2022-11-28T04:17:05.899Z,9.89
2022-11-28T04:18:05.888Z,9.88
2022-11-28T04:19:05.873Z,9.88
2022-11-28T04:20:05.982Z,9.88
2022-11-28T04:21:05.847Z,9.88
2022-11-28T04:22:05.834Z,9.89
2022-11-28T04:23:05.821Z,9.89
2022-11-28T04:24:05.809Z,9.89
2022-11-28T04:25:05.798Z,9.89
2022-11-28T04:26:05.783Z,9.89
2022-11-28T04:27:05.768Z,9.89
2022-11-28T04:28:05.756Z,9.88
2022-11-28T04:29:05.743Z,9.89
2022-11-28T04:30:05.734Z,9.89
2022-11-28T04:31:05.786Z,9.91
2022-11-28T04:32:05.749Z,9.89
2022-11-28T04:33:05.699Z,9.91
2022-11-28T04:34:05.678Z,9.91
2022-11-28T04:35:05.666Z,9.89
2022-11-28T04:36:05.774Z,9.89
2022-11-28T04:37:09.815Z,9.89
2022-11-28T04:38:05.626Z,9.89
2022-11-28T04:39:05.616Z,9.89
2022-11-28T04:40:05.602Z,9.91
2022-11-28T04:41:05.586Z,9.89
2022-11-28T04:42:05.576Z,9.89
2022-11-28T04:43:05.560Z,9.91
2022-11-28T04:44:05.548Z,9.89
2022-11-28T04:45:05.534Z,9.91
2022-11-28T04:46:05.612Z,9.91
2022-11-28T04:47:05.509Z,9.89
2022-11-28T04:48:05.497Z,9.89
2022-11-28T04:49:05.485Z,9.89
2022-11-28T04:50:05.473Z,9.89
2022-11-28T04:51:05.457Z,9.89
2022-11-28T04:52:05.566Z,9.89
2022-11-28T04:53:05.429Z,9.91
2022-11-28T04:54:05.418Z,9.93
2022-11-28T04:55:05.405Z,9.91
2022-11-28T04:56:05.392Z,9.93
2022-11-28T04:57:05.379Z,9.91
2022-11-28T04:58:05.367Z,9.93
2022-11-28T04:59:05.352Z,9.91
2022-11-28T05:00:05.341Z,9.89
2022-11-28T05:01:05.401Z,9.93
2022-11-28T05:02:05.394Z,9.93
2022-11-28T05:03:05.302Z,9.91
2022-11-28T05:04:05.288Z,9.91
2022-11-28T05:05:05.274Z,9.93
2022-11-28T05:06:05.273Z,9.93
2022-11-28T05:07:05.254Z,9.91
2022-11-28T05:08:05.464Z,9.93
2022-11-28T05:09:05.221Z,9.91
2022-11-28T05:10:05.210Z,9.91
2022-11-28T05:11:05.194Z,9.91
2022-11-28T05:12:05.183Z,9.91
2022-11-28T05:13:05.169Z,9.91
2022-11-28T05:14:05.160Z,9.91
2022-11-28T05:15:05.144Z,9.91
2022-11-28T05:16:05.180Z,9.89
2022-11-28T05:17:05.118Z,9.89
2022-11-28T05:18:05.107Z,9.91
2022-11-28T05:19:05.092Z,9.91
2022-11-28T05:20:05.083Z,9.89
2022-11-28T05:21:05.066Z,9.89
2022-11-28T05:22:05.054Z,9.91
2022-11-28T05:23:05.040Z,9.93
2022-11-28T05:24:05.152Z,9.93
2022-11-28T05:25:05.016Z,9.89
2022-11-28T05:26:05.003Z,9.91
2022-11-28T05:27:04.986Z,9.91
2022-11-28T05:28:04.975Z,9.91
2022-11-28T05:29:04.958Z,9.91
2022-11-28T05:30:04.949Z,9.89
2022-11-28T05:31:05.050Z,9.89
2022-11-28T05:32:05.022Z,9.89
2022-11-28T05:33:04.908Z,9.91
2022-11-28T05:34:04.898Z,9.91
2022-11-28T05:35:04.882Z,9.91
2022-11-28T05:36:08.610Z,9.89
2022-11-28T05:37:05.900Z,9.91
2022-11-28T05:38:07.196Z,9.89
2022-11-28T05:39:04.827Z,9.89
2022-11-28T05:40:04.941Z,9.89
2022-11-28T05:41:04.803Z,9.89
2022-11-28T05:42:04.793Z,9.89
2022-11-28T05:43:04.777Z,9.88
2022-11-28T05:44:04.766Z,9.89
2022-11-28T05:45:04.753Z,9.88
2022-11-28T05:46:04.804Z,9.88
2022-11-28T05:47:04.726Z,9.89
2022-11-28T05:48:04.715Z,9.89
2022-11-28T05:49:04.700Z,9.88
2022-11-28T05:50:04.688Z,9.89
2022-11-28T05:51:04.677Z,9.89
2022-11-28T05:52:04.663Z,9.89
2022-11-28T05:53:04.651Z,9.88
2022-11-28T05:54:04.638Z,9.89
2022-11-28T05:55:04.628Z,9.89
2022-11-28T05:56:04.737Z,9.88
2022-11-28T05:57:04.598Z,9.88
2022-11-28T05:58:04.587Z,9.88
2022-11-28T05:59:04.571Z,9.88
2022-11-28T06:00:04.568Z,9.89
2022-11-28T06:01:04.545Z,9.88
2022-11-28T06:02:04.631Z,9.88
2022-11-28T06:03:04.521Z,9.88
2022-11-28T06:04:04.591Z,9.89
2022-11-28T06:05:27.205Z,9.88
2022-11-28T06:06:05.522Z,9.88
2022-11-28T06:07:04.467Z,9.88
2022-11-28T06:08:04.495Z,9.89
2022-11-28T06:09:04.441Z,9.88
2022-11-28T06:10:04.429Z,9.89
2022-11-28T06:11:04.414Z,9.88
2022-11-28T06:12:04.525Z,9.89
2022-11-28T06:13:04.389Z,9.88
2022-11-28T06:14:04.387Z,9.88
2022-11-28T06:15:04.368Z,9.89
2022-11-28T06:16:04.378Z,9.89
2022-11-28T06:17:04.334Z,9.88
2022-11-28T06:18:04.392Z,9.88
2022-11-28T06:19:04.310Z,9.88
2022-11-28T06:20:04.297Z,9.88
2022-11-28T06:21:04.283Z,9.89
2022-11-28T06:22:04.276Z,9.89
2022-11-28T06:23:04.257Z,9.89
2022-11-28T06:24:04.245Z,9.89
2022-11-28T06:25:04.238Z,9.89
2022-11-28T06:26:04.222Z,9.89
2022-11-28T06:27:04.207Z,9.91
2022-11-28T06:28:04.311Z,9.89
2022-11-28T06:29:04.180Z,9.89
2022-11-28T06:30:04.169Z,9.89
2022-11-28T06:31:04.154Z,9.89
2022-11-28T06:32:04.159Z,9.89
2022-11-28T06:33:04.130Z,9.89
2022-11-28T06:34:04.115Z,9.89
2022-11-28T06:35:04.103Z,9.89
2022-11-28T06:36:04.089Z,9.88
2022-11-28T06:37:04.076Z,9.88
2022-11-28T06:38:04.064Z,9.89
2022-11-28T06:39:04.054Z,9.89
2022-11-28T06:40:04.038Z,9.88
2022-11-28T06:41:04.031Z,9.89
2022-11-28T06:42:04.015Z,9.89
2022-11-28T06:43:03.997Z,9.88
2022-11-28T06:44:04.102Z,9.88
2022-11-28T06:45:03.972Z,9.89
2022-11-28T06:46:04.149Z,9.89
2022-11-28T06:47:03.947Z,9.91
2022-11-28T06:48:03.938Z,9.91
2022-11-28T06:49:03.920Z,9.89
2022-11-28T06:50:03.910Z,9.89
2022-11-28T06:51:03.908Z,9.89
2022-11-28T06:52:03.896Z,9.89
2022-11-28T06:53:03.868Z,9.89
2022-11-28T06:54:03.858Z,9.89
2022-11-28T06:55:03.849Z,9.89
2022-11-28T06:56:03.831Z,9.88
2022-11-28T06:57:03.815Z,9.89
2022-11-28T06:58:03.819Z,9.88
2022-11-28T06:59:03.791Z,9.88
2022-11-28T07:00:03.898Z,9.88
2022-11-28T07:01:03.862Z,9.89
2022-11-28T07:02:07.573Z,9.88
2022-11-28T07:03:03.743Z,9.89
2022-11-28T07:04:03.750Z,9.89
2022-11-28T07:05:03.729Z,9.88
2022-11-28T07:06:03.709Z,9.89
2022-11-28T07:07:03.699Z,9.88
2022-11-28T07:08:03.773Z,9.89
2022-11-28T07:09:03.666Z,9.88
2022-11-28T07:10:03.656Z,9.89
2022-11-28T07:11:03.637Z,9.89
2022-11-28T07:12:03.627Z,9.89
2022-11-28T07:13:05.586Z,9.89
2022-11-28T07:14:03.602Z,9.89
2022-11-28T07:15:03.587Z,9.89
2022-11-28T07:16:03.703Z,9.89
2022-11-28T07:17:03.593Z,9.91
2022-11-28T07:18:03.583Z,9.89
2022-11-28T07:19:03.535Z,9.89
2022-11-28T07:20:03.525Z,9.89
2022-11-28T07:21:03.508Z,9.89
2022-11-28T07:22:03.499Z,9.89
2022-11-28T07:23:03.484Z,9.91
2022-11-28T07:24:03.470Z,9.91
2022-11-28T07:25:03.459Z,9.89
2022-11-28T07:26:03.447Z,9.89
2022-11-28T07:27:03.442Z,9.91
2022-11-28T07:28:03.419Z,9.89
2022-11-28T07:29:03.406Z,9.91
2022-11-28T07:30:03.391Z,9.91
2022-11-28T07:31:03.382Z,9.88
2022-11-28T07:32:03.607Z,9.89
2022-11-28T07:33:03.357Z,9.91
2022-11-28T07:34:03.540Z,9.89
2022-11-28T07:35:03.339Z,9.89
2022-11-28T07:36:03.316Z,9.89
2022-11-28T07:37:03.306Z,9.89
2022-11-28T07:38:03.295Z,9.89
2022-11-28T07:39:03.282Z,9.89
2022-11-28T07:40:03.265Z,9.88
2022-11-28T07:41:03.254Z,9.89
2022-11-28T07:42:03.239Z,9.89
2022-11-28T07:43:03.228Z,9.91
2022-11-28T07:44:03.214Z,9.91
2022-11-28T07:45:03.203Z,9.89
2022-11-28T07:46:03.209Z,9.91
2022-11-28T07:47:03.226Z,9.89
2022-11-28T07:48:03.185Z,9.89
2022-11-28T07:49:03.157Z,9.89
2022-11-28T07:50:03.138Z,9.89
2022-11-28T07:51:03.126Z,9.89
2022-11-28T07:52:03.109Z,9.89
2022-11-28T07:53:07.211Z,9.89
2022-11-28T07:54:03.098Z,9.89
2022-11-28T07:55:03.077Z,9.91
2022-11-28T07:56:03.058Z,9.91
2022-11-28T07:57:18.461Z,9.91
2022-11-28T07:58:04.074Z,9.94
2022-11-28T07:59:03.469Z,9.91
2022-11-28T08:00:03.007Z,9.91
2022-11-28T08:01:02.993Z,9.91
2022-11-28T08:02:03.023Z,9.94
2022-11-28T08:03:02.970Z,9.89
2022-11-28T08:04:03.044Z,9.93
2022-11-28T08:05:03.007Z,9.93
2022-11-28T08:06:03.370Z,9.91
2022-11-28T08:07:02.918Z,9.94
2022-11-28T08:08:03.036Z,9.94
2022-11-28T08:09:02.899Z,9.94
2022-11-28T08:10:02.877Z,9.93
2022-11-28T08:11:02.874Z,9.93
2022-11-28T08:12:02.858Z,9.91
2022-11-28T08:13:02.841Z,9.93
2022-11-28T08:14:02.827Z,9.93
2022-11-28T08:15:02.817Z,9.93
2022-11-28T08:16:02.799Z,9.93
2022-11-28T08:17:02.911Z,9.93
2022-11-28T08:18:02.775Z,9.93
2022-11-28T08:19:02.765Z,9.93
2022-11-28T08:20:02.777Z,9.93
2022-11-28T08:21:02.740Z,9.93
2022-11-28T08:22:02.722Z,9.91
2022-11-28T08:23:02.711Z,9.93
2022-11-28T08:24:02.699Z,9.93
2022-11-28T08:25:02.689Z,9.91
2022-11-28T08:26:02.720Z,9.93
2022-11-28T08:27:02.668Z,9.91
2022-11-28T08:28:02.646Z,9.93
2022-11-28T08:29:02.639Z,9.93
2022-11-28T08:30:02.626Z,9.94
2022-11-28T08:31:02.665Z,9.94
2022-11-28T08:32:02.593Z,9.91
2022-11-28T08:33:02.586Z,9.94
2022-11-28T08:34:02.570Z,9.94
2022-11-28T08:35:02.558Z,9.93
2022-11-28T08:36:02.571Z,9.93
2022-11-28T08:37:02.532Z,9.93
2022-11-28T08:38:02.517Z,9.94
2022-11-28T08:39:22.782Z,9.94
2022-11-28T08:40:03.538Z,9.94
2022-11-28T08:41:02.481Z,9.93
2022-11-28T08:42:02.473Z,9.91
2022-11-28T08:43:02.455Z,9.94
2022-11-28T08:44:02.440Z,9.94
2022-11-28T08:45:02.426Z,9.94
2022-11-28T08:46:02.577Z,9.93
2022-11-28T08:47:02.407Z,9.94
2022-11-28T08:48:02.390Z,9.96
2022-11-28T08:49:04.351Z,9.94
2022-11-28T08:50:02.365Z,9.96
2022-11-28T08:51:02.351Z,9.94
2022-11-28T08:52:02.364Z,9.96
2022-11-28T08:53:07.720Z,9.96
2022-11-28T08:54:02.311Z,9.96
2022-11-28T08:55:02.300Z,9.96
2022-11-28T08:56:02.287Z,9.94
2022-11-28T08:57:02.276Z,9.94
2022-11-28T08:58:02.261Z,9.94
2022-11-28T08:59:02.249Z,9.94
2022-11-28T09:00:02.238Z,9.96
2022-11-28T09:01:02.274Z,9.94
2022-11-28T09:02:02.208Z,9.94
2022-11-28T09:03:02.197Z,9.96
2022-11-28T09:04:02.254Z,9.96
2022-11-28T09:05:02.171Z,9.96
2022-11-28T09:06:02.160Z,9.96
2022-11-28T09:07:02.145Z,9.94
2022-11-28T09:08:02.243Z,9.96
2022-11-28T09:09:02.122Z,9.93
2022-11-28T09:10:02.107Z,9.94
2022-11-28T09:11:02.094Z,9.94
2022-11-28T09:12:02.078Z,9.94
2022-11-28T09:13:02.072Z,9.96
2022-11-28T09:14:02.051Z,9.96
2022-11-28T09:15:02.042Z,9.96
2022-11-28T09:16:02.026Z,9.96
2022-11-28T09:17:02.085Z,9.96
2022-11-28T09:18:02.004Z,9.96
2022-11-28T09:19:02.007Z,9.96
2022-11-28T09:20:01.976Z,9.96
2022-11-28T09:21:01.963Z,9.96
2022-11-28T09:22:01.959Z,9.96
2022-11-28T09:23:01.941Z,9.97
2022-11-28T09:24:01.946Z,9.96
2022-11-28T09:25:01.917Z,9.96
2022-11-28T09:26:01.899Z,9.96
2022-11-28T09:27:01.888Z,9.97
2022-11-28T09:28:01.872Z,9.97
2022-11-28T09:29:01.868Z,9.96
2022-11-28T09:30:01.845Z,9.97
2022-11-28T09:31:01.905Z,9.97
2022-11-28T09:32:01.821Z,9.97
2022-11-28T09:33:01.813Z,9.97
2022-11-28T09:34:01.798Z,9.96
2022-11-28T09:35:01.787Z,9.96
2022-11-28T09:36:01.770Z,9.99
2022-11-28T09:37:04.898Z,9.97
2022-11-28T09:38:01.745Z,9.96
2022-11-28T09:39:01.734Z,9.97
2022-11-28T09:40:16.443Z,9.97
2022-11-28T09:41:02.747Z,9.97
2022-11-28T09:42:01.692Z,9.99
2022-11-28T09:43:01.687Z,9.97
2022-11-28T09:44:01.667Z,9.97
2022-11-28T09:45:01.655Z,9.99
2022-11-28T09:46:01.700Z,9.99
2022-11-28T09:47:01.630Z,10.00
2022-11-28T09:48:01.615Z,9.99
2022-11-28T09:49:01.605Z,9.97
2022-11-28T09:50:01.590Z,9.97
2022-11-28T09:51:01.581Z,9.97
2022-11-28T09:52:01.636Z,9.97
2022-11-28T09:53:01.688Z,9.99
2022-11-28T09:54:01.535Z,10.00
2022-11-28T09:55:01.526Z,10.00
2022-11-28T09:56:01.534Z,9.99
2022-11-28T09:57:01.502Z,10.00
2022-11-28T09:58:01.488Z,9.99
2022-11-28T09:59:01.476Z,10.00
2022-11-28T10:00:01.463Z,9.99
2022-11-28T10:01:01.450Z,10.00
2022-11-28T10:02:01.435Z,9.99
2022-11-28T10:03:01.427Z,9.99
2022-11-28T10:04:01.639Z,9.99
2022-11-28T10:05:01.486Z,9.99
2022-11-28T10:06:01.384Z,10.00
2022-11-28T10:07:01.382Z,10.00
2022-11-28T10:08:01.427Z,9.99
2022-11-28T10:09:01.348Z,10.00
2022-11-28T10:10:01.336Z,9.99
2022-11-28T10:11:01.321Z,9.99
2022-11-28T10:12:01.333Z,10.00
2022-11-28T10:13:01.297Z,9.99
2022-11-28T10:14:08.098Z,10.00
2022-11-28T10:15:02.315Z,10.00
2022-11-28T10:16:01.258Z,9.99
2022-11-28T10:17:01.265Z,10.01
2022-11-28T10:18:01.230Z,10.00
2022-11-28T10:19:01.219Z,10.00
2022-11-28T10:20:01.466Z,10.00
2022-11-28T10:21:01.193Z,10.00
2022-11-28T10:22:01.178Z,10.00
2022-11-28T10:23:01.169Z,10.00
2022-11-28T10:24:01.156Z,10.01
2022-11-28T10:25:01.142Z,10.01
2022-11-28T10:26:01.128Z,10.00
2022-11-28T10:27:01.116Z,10.00
2022-11-28T10:28:01.127Z,10.01
2022-11-28T10:29:01.090Z,10.00
2022-11-28T10:30:01.077Z,10.00
2022-11-28T10:31:01.132Z,10.00
2022-11-28T10:32:01.050Z,10.01
2022-11-28T10:33:01.038Z,10.01
2022-11-28T10:34:01.023Z,10.01
2022-11-28T10:35:01.018Z,10.01
2022-11-28T10:36:01.000Z,10.00
2022-11-28T10:37:00.987Z,10.01
2022-11-28T10:38:00.971Z,10.01
2022-11-28T10:39:00.979Z,10.03
2022-11-28T10:40:00.949Z,10.00
2022-11-28T10:41:00.934Z,10.00
2022-11-28T10:42:00.924Z,10.01
2022-11-28T10:43:00.909Z,10.00
2022-11-28T10:44:00.924Z,10.00
2022-11-28T10:45:00.884Z,10.01
2022-11-28T10:46:00.948Z,10.01
2022-11-28T10:47:00.860Z,10.03
2022-11-28T10:48:07.553Z,10.01
2022-11-28T10:49:01.872Z,10.01
2022-11-28T10:50:00.817Z,10.01
2022-11-28T10:51:00.808Z,10.01
2022-11-28T10:52:00.793Z,10.01
2022-11-28T10:53:00.781Z,10.00
2022-11-28T10:54:00.769Z,10.01
2022-11-28T10:55:00.757Z,10.03
2022-11-28T10:56:00.740Z,10.03
2022-11-28T10:57:00.730Z,10.01
2022-11-28T10:58:00.739Z,10.03
2022-11-28T10:59:00.701Z,10.03
2022-11-28T11:00:00.729Z,10.03
2022-11-28T11:01:00.711Z,10.04
2022-11-28T11:02:00.746Z,10.03
2022-11-28T11:03:00.652Z,10.01
2022-11-28T11:04:00.637Z,10.04
2022-11-28T11:05:00.709Z,10.04
2022-11-28T11:06:00.610Z,10.03
2022-11-28T11:07:09.424Z,10.03
2022-11-28T11:08:01.710Z,10.01
2022-11-28T11:09:00.571Z,10.03
2022-11-28T11:10:00.561Z,10.03
2022-11-28T11:11:00.550Z,10.03
2022-11-28T11:12:00.538Z,10.03
2022-11-28T11:13:00.524Z,10.03
2022-11-28T11:14:00.513Z,10.03
2022-11-28T11:15:00.499Z,10.04
2022-11-28T11:16:00.595Z,10.03
2022-11-28T11:17:00.475Z,10.03
2022-11-28T11:18:00.459Z,10.03
2022-11-28T11:19:00.450Z,10.01
2022-11-28T11:20:00.439Z,10.04
2022-11-28T11:21:00.422Z,10.04
2022-11-28T11:22:00.408Z,10.04
2022-11-28T11:23:00.395Z,10.01
2022-11-28T11:24:00.383Z,10.03
2022-11-28T11:25:00.371Z,10.03
2022-11-28T11:26:00.363Z,10.03
2022-11-28T11:27:00.345Z,10.01
2022-11-28T11:28:00.333Z,10.01
2022-11-28T11:29:00.318Z,10.03
2022-11-28T11:30:00.309Z,10.03
2022-11-28T11:31:00.412Z,10.03
2022-11-28T11:32:00.302Z,10.01
2022-11-28T11:33:00.268Z,10.04
2022-11-28T11:34:00.253Z,10.04
2022-11-28T11:35:00.242Z,10.03
2022-11-28T11:36:00.227Z,10.03
2022-11-28T11:37:00.218Z,10.04
2022-11-28T11:38:00.197Z,10.04
2022-11-28T11:39:00.189Z,10.04
2022-11-28T11:40:00.180Z,10.03
2022-11-28T11:41:00.169Z,10.03
2022-11-28T11:42:00.157Z,10.04
2022-11-28T11:43:00.234Z,10.04
2022-11-28T11:44:00.125Z,10.03
2022-11-28T11:45:00.121Z,10.03
2022-11-28T11:46:00.197Z,10.04
2022-11-28T11:47:00.095Z,10.03
2022-11-28T11:48:00.107Z,10.06
2022-11-28T11:49:00.070Z,10.06
2022-11-28T11:50:00.049Z,10.06
2022-11-28T11:51:00.051Z,10.04
2022-11-28T11:52:00.099Z,10.03
2022-11-28T11:53:00.008Z,10.04
2022-11-28T11:53:59.997Z,10.04
2022-11-28T11:54:59.983Z,10.04
2022-11-28T11:55:59.972Z,10.04
2022-11-28T11:57:24.995Z,10.04
2022-11-28T11:58:05.426Z,10.06
2022-11-28T11:58:59.933Z,10.06
2022-11-28T11:59:59.919Z,10.04
2022-11-28T12:00:59.906Z,10.04
2022-11-28T12:01:59.896Z,10.04
2022-11-28T12:03:00.001Z,10.04
2022-11-28T12:04:00.542Z,10.04
2022-11-28T12:04:59.945Z,10.04
2022-11-28T12:06:13.820Z,10.06
2022-11-28T12:07:00.870Z,10.04
2022-11-28T12:07:59.956Z,10.03
2022-11-28T12:08:59.802Z,10.04
2022-11-28T12:10:04.347Z,10.04
2022-11-28T12:10:59.783Z,10.06
2022-11-28T12:11:59.770Z,10.04
2022-11-28T12:12:59.751Z,10.03
2022-11-28T12:13:59.740Z,10.04
2022-11-28T12:14:59.726Z,10.04
2022-11-28T12:15:59.789Z,10.03
2022-11-28T12:16:59.697Z,10.04
2022-11-28T12:17:59.685Z,10.04
2022-11-28T12:18:59.675Z,10.03
2022-11-28T12:19:59.706Z,10.04
2022-11-28T12:20:59.646Z,10.03
2022-11-28T12:21:59.643Z,10.03
2022-11-28T12:22:59.622Z,10.04
2022-11-28T12:23:59.614Z,10.03
2022-11-28T12:24:59.596Z,10.03
2022-11-28T12:25:59.586Z,10.03
2022-11-28T12:26:59.568Z,10.04
2022-11-28T12:27:59.566Z,10.03
2022-11-28T12:28:59.551Z,10.04
2022-11-28T12:29:59.532Z,10.04
2022-11-28T12:30:59.704Z,10.04
2022-11-28T12:31:59.504Z,10.06
2022-11-28T12:32:59.490Z,10.07
2022-11-28T12:33:59.479Z,10.06
2022-11-28T12:34:59.464Z,10.07
2022-11-28T12:36:03.104Z,10.07
2022-11-28T12:36:59.437Z,10.07
2022-11-28T12:38:14.812Z,10.04
2022-11-28T12:39:00.455Z,10.07
2022-11-28T12:39:59.402Z,10.07
2022-11-28T12:40:59.396Z,10.07
2022-11-28T12:41:59.375Z,10.04
2022-11-28T12:42:59.364Z,10.06
2022-11-28T12:43:59.351Z,10.04
2022-11-28T12:44:59.338Z,10.06
2022-11-28T12:45:59.389Z,10.06
2022-11-28T12:46:59.312Z,10.04
2022-11-28T12:47:59.309Z,10.06
2022-11-28T12:48:59.285Z,10.07
2022-11-28T12:49:59.276Z,10.06
2022-11-28T12:50:59.262Z,10.06
2022-11-28T12:51:59.273Z,10.04
2022-11-28T12:52:59.233Z,10.06
2022-11-28T12:53:59.220Z,10.06
2022-11-28T12:54:59.206Z,10.07
2022-11-28T12:55:59.194Z,10.07
2022-11-28T12:56:59.179Z,10.07
2022-11-28T12:58:04.010Z,10.06
2022-11-28T12:59:00.194Z,10.07
2022-11-28T13:00:03.412Z,10.07
2022-11-28T13:01:00.172Z,10.07
2022-11-28T13:01:59.187Z,10.07
2022-11-28T13:02:59.170Z,10.07
2022-11-28T13:03:59.091Z,10.09
2022-11-28T13:04:59.076Z,10.09
2022-11-28T13:05:59.066Z,10.09
2022-11-28T13:06:59.053Z,10.07
2022-11-28T13:07:59.140Z,10.07
2022-11-28T13:08:59.024Z,10.09
2022-11-28T13:09:59.012Z,10.07